Time;durP1;ratioP1;P1;durP2;ratioP2;P2;SDS_P1;SDS_P2;PMS_P1;PMS_P2;Temp;Humidity;BMP_temperature;BMP_pressure;BME280_temperature;BME280_humidity;BME280_pressure;Samples;Min_cycle;Max_cycle;Signal;HPM_P1;HPM_P2
2023/09/25 00:01:21;;;;;;;3.70;3.70;;;;;;;;;;4132252;28;20531;-62
2023/09/25 00:03:23;;;;;;;2.65;2.53;;;;;;;;;;4117516;28;20050;-64
2023/09/25 00:05:25;;;;;;;4.35;4.25;;;;;;;;;;4130840;28;20130;-64
2023/09/25 00:07:27;;;;;;;4.20;4.20;;;;;;;;;;4116148;28;20524;-63
2023/09/25 00:09:28;;;;;;;5.20;5.20;;;;;;;;;;4116586;28;20066;-62
2023/09/25 00:11:30;;;;;;;5.47;5.38;;;;;;;;;;4115411;28;20078;-62
2023/09/25 00:13:32;;;;;;;5.57;5.30;;;;;;;;;;4116304;28;20102;-62
2023/09/25 00:15:34;;;;;;;4.57;4.25;;;;;;;;;;4114877;28;20651;-64
2023/09/25 00:17:35;;;;;;;;;;;;;;;;;;4116413;28;20071;-63
2023/09/25 00:19:37;;;;;;;3.03;2.88;;;;;;;;;;4115904;28;19922;-64
2023/09/25 00:21:40;;;;;;;2.33;2.22;;;;;;;;;;4115956;28;20101;-64
2023/09/25 00:23:42;;;;;;;2.28;2.17;;;;;;;;;;4115813;28;20053;-64
2023/09/25 00:25:44;;;;;;;2.08;2.03;;;;;;;;;;4116001;28;20039;-63
2023/09/25 00:27:45;;;;;;;2.07;2.07;;;;;;;;;;4120783;28;20042;-63
2023/09/25 00:29:47;;;;;;;2.15;2.15;;;;;;;;;;4116053;28;20039;-64
2023/09/25 00:31:49;;;;;;;3.00;3.00;;;;;;;;;;4117888;28;20582;-63
2023/09/25 00:33:50;;;;;;;2.70;2.70;;;;;;;;;;4131932;28;20285;-63
2023/09/25 00:35:56;;;;;;;2.03;1.92;;;;;;;;;;4131886;28;20046;-63
2023/09/25 00:37:57;;;;;;;1.77;1.77;;;;;;;;;;4131808;28;20046;-63
2023/09/25 00:39:59;;;;;;;2.67;2.58;;;;;;;;;;4123390;28;20061;-64
2023/09/25 00:42:00;;;;;;;1.70;1.70;;;;;;;;;;4115721;28;20511;-64
2023/09/25 00:44:02;;;;;;;1.45;1.45;;;;;;;;;;4121895;28;20558;-64
2023/09/25 00:46:04;;;;;;;1.30;1.30;;;;;;;;;;4131817;28;20101;-64
2023/09/25 00:48:06;;;;;;;2.73;1.10;;;;;;;;;;4131893;28;20054;-64
2023/09/25 00:50:09;;;;;;;1.10;1.10;;;;;;;;;;4131653;28;20681;-64
2023/09/25 00:52:12;;;;;;;1.50;1.50;;;;;;;;;;4131653;28;20049;-64
2023/09/25 00:54:17;;;;;;;1.48;1.45;;;;;;;;;;4131365;28;20443;-64
2023/09/25 00:56:39;;;;;;;1.40;1.40;;;;;;;;;;4131594;28;20046;-64
2023/09/25 00:58:41;;;;;;;1.87;1.73;;;;;;;;;;4123621;28;20103;-65
2023/09/25 01:00:43;;;;;;;2.88;1.40;;;;;;;;;;4115692;28;20097;-68
2023/09/25 01:02:44;;;;;;;1.40;1.40;;;;;;;;;;4123672;28;20054;-69
2023/09/25 01:04:56;;;;;;;1.90;1.90;;;;;;;;;;4144261;28;20050;-71
2023/09/25 01:06:58;;;;;;;2.75;2.65;;;;;;;;;;4147587;28;20077;-70
2023/09/25 01:09:00;;;;;;;3.70;3.70;;;;;;;;;;4146427;28;20049;-71
2023/09/25 01:11:02;;;;;;;4.43;4.40;;;;;;;;;;4147233;28;20038;-70
2023/09/25 01:13:04;;;;;;;5.07;4.95;;;;;;;;;;4147556;28;20128;-71
2023/09/25 01:15:06;;;;;;;4.53;4.45;;;;;;;;;;4147446;28;20046;-71
2023/09/25 01:17:08;;;;;;;4.53;4.47;;;;;;;;;;4147550;28;20042;-70
2023/09/25 01:19:10;;;;;;;4.03;4.03;;;;;;;;;;4146228;28;20524;-71
2023/09/25 01:21:11;;;;;;;5.23;5.10;;;;;;;;;;4147377;28;20069;-70
2023/09/25 01:23:13;;;;;;;4.65;4.65;;;;;;;;;;4150286;28;20120;-71
2023/09/25 01:25:15;;;;;;;4.00;4.00;;;;;;;;;;4152799;28;20069;-71
2023/09/25 01:27:18;;;;;;;4.15;4.15;;;;;;;;;;4151430;28;20054;-70
2023/09/25 01:29:20;;;;;;;2.85;2.85;;;;;;;;;;4153021;28;20049;-70
2023/09/25 01:31:22;;;;;;;;;;;;;;;;;;4153302;28;20046;-70
2023/09/25 01:33:23;;;;;;;5.20;5.00;;;;;;;;;;4166762;28;19929;-70
2023/09/25 01:35:26;;;;;;;6.28;6.15;;;;;;;;;;4169140;28;20057;-71
2023/09/25 01:37:28;;;;;;;4.97;4.97;;;;;;;;;;4169171;28;20432;-70
2023/09/25 01:39:31;;;;;;;5.75;5.65;;;;;;;;;;4167924;28;20041;-71
2023/09/25 01:41:33;;;;;;;4.95;4.85;;;;;;;;;;4136910;28;20046;-70
2023/09/25 01:43:34;;;;;;;5.40;4.90;;;;;;;;;;4145777;28;20440;-70
2023/09/25 01:45:36;;;;;;;4.50;4.17;;;;;;;;;;4152934;28;20300;-70
2023/09/25 01:47:39;;;;;;;5.10;4.75;;;;;;;;;;4151168;28;20424;-70
2023/09/25 01:49:42;;;;;;;4.63;4.63;;;;;;;;;;4152954;28;20148;-71
2023/09/25 01:51:44;;;;;;;4.78;4.57;;;;;;;;;;4152705;28;20129;-70
2023/09/25 01:53:50;;;;;;;4.20;4.00;;;;;;;;;;4152690;28;20050;-71
2023/09/25 01:55:52;;;;;;;4.30;4.20;;;;;;;;;;4167605;28;20665;-70
2023/09/25 01:57:53;;;;;;;4.23;3.97;;;;;;;;;;4167742;28;20061;-70
2023/09/25 01:59:55;;;;;;;2.53;2.53;;;;;;;;;;4152967;28;20070;-70
2023/09/25 02:01:57;;;;;;;2.95;2.85;;;;;;;;;;4152673;28;20324;-70
2023/09/25 02:03:59;;;;;;;2.53;2.42;;;;;;;;;;4144279;28;20051;-70
2023/09/25 02:06:01;;;;;;;2.30;2.30;;;;;;;;;;4136561;28;20043;-70
2023/09/25 02:08:03;;;;;;;2.03;2.00;;;;;;;;;;4136259;28;20101;-70
2023/09/25 02:10:05;;;;;;;1.88;1.88;;;;;;;;;;4136115;28;20093;-70
2023/09/25 02:12:07;;;;;;;;;;;;;;;;;;4136824;28;20403;-70
2023/09/25 02:14:09;;;;;;;2.55;2.45;;;;;;;;;;4136310;28;19921;-70
2023/09/25 02:16:11;;;;;;;2.45;2.35;;;;;;;;;;4136426;28;20449;-70
2023/09/25 02:18:13;;;;;;;1.90;1.90;;;;;;;;;;4136618;28;20046;-70
2023/09/25 02:20:19;;;;;;;1.58;1.58;;;;;;;;;;4136295;28;20050;-69
2023/09/25 02:22:21;;;;;;;1.85;1.85;;;;;;;;;;4136252;28;20084;-70
2023/09/25 02:24:23;;;;;;;1.70;1.70;;;;;;;;;;4136249;28;20038;-70
2023/09/25 02:26:25;;;;;;;1.33;1.33;;;;;;;;;;4136365;28;20045;-69
2023/09/25 02:28:27;;;;;;;1.80;1.80;;;;;;;;;;4136377;28;20042;-70
2023/09/25 02:30:28;;;;;;;1.70;1.60;;;;;;;;;;4136230;28;20072;-69
2023/09/25 02:32:30;;;;;;;1.73;1.73;;;;;;;;;;4142911;28;20285;-69
2023/09/25 02:34:32;;;;;;;1.80;1.80;;;;;;;;;;4150577;28;20285;-69
2023/09/25 02:36:33;;;;;;;7.15;6.85;;;;;;;;;;4143278;28;20089;-69
2023/09/25 02:38:35;;;;;;;7.63;7.32;;;;;;;;;;4133506;28;20046;-69
2023/09/25 02:40:38;;;;;;;6.10;5.90;;;;;;;;;;4132838;28;20057;-70
2023/09/25 02:42:40;;;;;;;5.07;5.03;;;;;;;;;;4133477;28;20097;-69
2023/09/25 02:44:42;;;;;;;5.22;5.13;;;;;;;;;;4133405;28;20070;-69
2023/09/25 02:46:43;;;;;;;4.20;3.85;;;;;;;;;;4133270;28;20038;-70
2023/09/25 02:48:45;;;;;;;4.17;4.07;;;;;;;;;;4133549;28;20046;-69
2023/09/25 02:50:48;;;;;;;4.35;4.35;;;;;;;;;;4137320;28;20289;-69
2023/09/25 02:52:49;;;;;;;3.70;3.60;;;;;;;;;;4149637;28;20058;-69
2023/09/25 02:54:51;;;;;;;4.50;4.40;;;;;;;;;;4144195;28;20043;-69
2023/09/25 02:56:53;;;;;;;3.50;3.37;;;;;;;;;;4133255;28;20073;-69
2023/09/25 02:58:54;;;;;;;3.80;3.70;;;;;;;;;;4132307;28;20134;-70
2023/09/25 03:00:57;;;;;;;2.60;2.60;;;;;;;;;;4132304;28;20133;-69
2023/09/25 03:02:59;;;;;;;2.92;2.92;;;;;;;;;;4133373;28;20046;-69
2023/09/25 03:05:01;;;;;;;2.47;2.47;;;;;;;;;;4133061;28;20129;-69
2023/09/25 03:07:02;;;;;;;2.42;2.42;;;;;;;;;;4133112;28;20050;-68
2023/09/25 03:09:04;;;;;;;2.00;2.00;;;;;;;;;;4133074;28;20042;-68
2023/09/25 03:11:06;;;;;;;2.38;2.38;;;;;;;;;;4132428;28;20285;-68
2023/09/25 03:13:08;;;;;;;2.92;2.83;;;;;;;;;;4132765;28;20042;-68
2023/09/25 03:15:09;;;;;;;2.87;2.83;;;;;;;;;;4133043;28;20417;-69
2023/09/25 03:17:12;;;;;;;2.72;2.72;;;;;;;;;;4132739;28;20336;-69
2023/09/25 03:19:13;;;;;;;1.95;1.95;;;;;;;;;;4132289;28;20054;-69
2023/09/25 03:21:15;;;;;;;1.75;1.65;;;;;;;;;;4133153;28;20424;-69
2023/09/25 03:23:17;;;;;;;1.65;1.65;;;;;;;;;;4133336;28;20038;-68
2023/09/25 03:25:19;;;;;;;1.88;1.88;;;;;;;;;;4133035;28;20042;-70
2023/09/25 03:27:21;;;;;;;2.00;1.90;;;;;;;;;;4133081;28;20050;-68
2023/09/25 03:29:23;;;;;;;1.70;1.20;;;;;;;;;;4132350;28;20521;-69
2023/09/25 03:31:25;;;;;;;1.10;1.00;;;;;;;;;;4133039;28;20035;-69
2023/09/25 03:33:27;;;;;;;1.20;1.17;;;;;;;;;;4135349;28;20046;-68
2023/09/25 03:35:29;;;;;;;;;;;;;;;;;;4133567;28;20038;-69
2023/09/25 03:37:31;;;;;;;1.10;1.10;;;;;;;;;;4132852;28;20317;-69
2023/09/25 03:39:32;;;;;;;1.13;1.13;;;;;;;;;;4132558;28;20506;-69
2023/09/25 03:41:34;;;;;;;2.40;2.17;;;;;;;;;;4133144;28;20097;-69
2023/09/25 03:43:35;;;;;;;3.03;2.83;;;;;;;;;;4132848;28;20475;-69
2023/09/25 03:45:37;;;;;;;1.42;1.42;;;;;;;;;;4132822;28;20340;-69
2023/09/25 03:47:39;;;;;;;1.30;1.30;;;;;;;;;;4140036;28;20394;-68
2023/09/25 03:49:42;;;;;;;1.80;1.23;;;;;;;;;;4148821;28;20473;-68
2023/09/25 03:51:44;;;;;;;1.98;1.80;;;;;;;;;;4138380;28;20045;-69
2023/09/25 03:53:45;;;;;;;1.60;1.55;;;;;;;;;;4132631;28;20076;-69
2023/09/25 03:55:47;;;;;;;3.40;1.42;;;;;;;;;;4132560;28;20054;-69
2023/09/25 03:57:49;;;;;;;2.13;1.33;;;;;;;;;;4132889;28;20046;-68
2023/09/25 03:59:50;;;;;;;1.10;1.10;;;;;;;;;;4132245;28;20068;-68
2023/09/25 04:01:52;;;;;;;1.33;1.23;;;;;;;;;;4132464;28;20042;-71
2023/09/25 04:03:54;;;;;;;1.75;1.55;;;;;;;;;;4132205;28;20459;-68
2023/09/25 04:05:55;;;;;;;1.48;1.48;;;;;;;;;;4131703;28;20039;-68
2023/09/25 04:07:58;;;;;;;1.00;1.00;;;;;;;;;;4125811;28;20049;-68
2023/09/25 04:10:02;;;;;;;1.20;1.20;;;;;;;;;;4131672;28;20714;-68
2023/09/25 04:12:03;;;;;;;1.48;1.38;;;;;;;;;;4132085;28;20125;-69
2023/09/25 04:14:08;;;;;;;1.10;1.10;;;;;;;;;;4132098;28;20376;-68
2023/09/25 04:16:14;;;;;;;1.58;1.58;;;;;;;;;;4126038;28;20070;-68
2023/09/25 04:18:18;;;;;;;1.40;1.30;;;;;;;;;;4131676;28;20039;-68
2023/09/25 04:20:24;;;;;;;1.10;1.10;;;;;;;;;;4132196;28;20050;-68
2023/09/25 04:22:27;;;;;;;1.48;1.30;;;;;;;;;;4132343;28;20049;-68
2023/09/25 04:24:29;;;;;;;1.67;1.30;;;;;;;;;;4132317;28;20034;-68
2023/09/25 04:26:31;;;;;;;1.40;1.40;;;;;;;;;;4132150;28;20069;-68
2023/09/25 04:28:33;;;;;;;1.35;1.20;;;;;;;;;;4131174;28;20537;-67
2023/09/25 04:30:34;;;;;;;1.20;1.20;;;;;;;;;;4132066;28;20066;-68
2023/09/25 04:32:37;;;;;;;1.10;1.10;;;;;;;;;;4131950;28;20042;-68
2023/09/25 04:34:39;;;;;;;2.42;1.40;;;;;;;;;;4132060;28;20045;-67
2023/09/25 04:36:41;;;;;;;1.30;1.30;;;;;;;;;;4132006;28;20092;-67
2023/09/25 04:38:44;;;;;;;1.30;1.30;;;;;;;;;;4131813;28;20049;-67
2023/09/25 04:40:46;;;;;;;1.10;1.10;;;;;;;;;;4115887;28;20053;-68
2023/09/25 04:42:52;;;;;;;1.20;1.20;;;;;;;;;;4115848;28;20043;-67
2023/09/25 04:44:53;;;;;;;1.20;1.10;;;;;;;;;;4115856;28;20050;-68
2023/09/25 04:46:55;;;;;;;1.20;1.20;;;;;;;;;;4125551;28;20117;-67
2023/09/25 04:48:57;;;;;;;2.63;2.08;;;;;;;;;;4131795;28;20073;-68
2023/09/25 04:50:58;;;;;;;1.00;1.00;;;;;;;;;;4131823;28;20181;-67
2023/09/25 04:53:00;;;;;;;1.10;1.00;;;;;;;;;;4132020;28;20100;-67
2023/09/25 04:55:05;;;;;;;1.20;1.20;;;;;;;;;;4131728;28;20042;-67
2023/09/25 04:57:07;;;;;;;1.00;1.00;;;;;;;;;;4131461;28;20501;-67
2023/09/25 04:59:09;;;;;;;1.10;1.10;;;;;;;;;;4131288;28;20145;-67
2023/09/25 05:01:10;;;;;;;1.60;1.50;;;;;;;;;;4131801;28;20034;-67
2023/09/25 05:03:12;;;;;;;1.00;1.00;;;;;;;;;;4131494;28;20506;-67
2023/09/25 05:05:15;;;;;;;3.42;1.00;;;;;;;;;;4131566;28;20052;-67
2023/09/25 05:07:16;;;;;;;;;;;;;;;;;;4132108;28;20070;-67
2023/09/25 05:09:18;;;;;;;1.10;1.10;;;;;;;;;;4131533;28;19929;-67
2023/09/25 05:11:20;;;;;;;1.95;1.10;;;;;;;;;;4131883;28;20049;-67
2023/09/25 05:13:22;;;;;;;1.60;1.10;;;;;;;;;;4131441;28;20038;-67
2023/09/25 05:15:24;;;;;;;5.43;1.10;;;;;;;;;;4130737;28;20510;-67
2023/09/25 05:17:26;;;;;;;;;;;;;;;;;;4131951;28;20050;-67
2023/09/25 05:19:27;;;;;;;1.55;1.20;;;;;;;;;;4131446;28;19922;-64
2023/09/25 05:21:29;;;;;;;1.02;1.02;;;;;;;;;;4146698;28;20464;-66
2023/09/25 05:23:31;;;;;;;1.10;1.10;;;;;;;;;;4131416;28;20125;-66
2023/09/25 05:25:33;;;;;;;1.10;1.10;;;;;;;;;;4146319;28;20363;-66
2023/09/25 05:27:38;;;;;;;1.10;1.10;;;;;;;;;;4131664;28;20093;-66
2023/09/25 05:29:43;;;;;;;1.00;1.00;;;;;;;;;;4130680;28;20120;-67
2023/09/25 05:31:45;;;;;;;1.10;1.10;;;;;;;;;;4131388;28;20034;-66
2023/09/25 05:33:46;;;;;;;1.20;1.02;;;;;;;;;;4117650;28;20077;-65
2023/09/25 05:35:48;;;;;;;1.17;1.10;;;;;;;;;;4125157;28;20053;-66
2023/09/25 05:37:53;;;;;;;0.93;0.93;;;;;;;;;;4131441;28;20129;-66
2023/09/25 05:39:54;;;;;;;1.40;1.40;;;;;;;;;;4131058;28;20046;-66
2023/09/25 05:41:56;;;;;;;2.47;1.10;;;;;;;;;;4131346;28;20343;-66
2023/09/25 05:43:58;;;;;;;1.00;1.00;;;;;;;;;;4130122;28;20524;-66
2023/09/25 05:46:00;;;;;;;1.30;1.00;;;;;;;;;;4129646;28;20051;-66
2023/09/25 05:48:03;;;;;;;1.10;1.10;;;;;;;;;;4129735;28;20085;-66
2023/09/25 05:50:08;;;;;;;1.00;1.00;;;;;;;;;;4131147;28;20467;-65
2023/09/25 05:52:10;;;;;;;1.02;1.02;;;;;;;;;;4130031;28;20094;-66
2023/09/25 05:54:12;;;;;;;1.00;1.00;;;;;;;;;;4131256;28;20053;-66
2023/09/25 05:56:13;;;;;;;0.90;0.90;;;;;;;;;;4131253;28;20042;-66
2023/09/25 05:58:17;;;;;;;1.00;1.00;;;;;;;;;;4131141;28;20428;-66
2023/09/25 06:00:18;;;;;;;1.10;1.10;;;;;;;;;;4130531;28;20113;-66
2023/09/25 06:02:20;;;;;;;1.10;1.10;;;;;;;;;;4131185;28;20104;-65
2023/09/25 06:04:28;;;;;;;1.00;1.00;;;;;;;;;;4131016;28;20561;-66
2023/09/25 06:06:30;;;;;;;1.10;1.00;;;;;;;;;;4131489;28;20498;-65
2023/09/25 06:08:33;;;;;;;1.20;0.90;;;;;;;;;;4131149;28;20038;-66
2023/09/25 06:10:35;;;;;;;1.85;1.10;;;;;;;;;;4131837;28;20046;-65
2023/09/25 06:12:39;;;;;;;3.45;3.35;;;;;;;;;;4134315;28;20039;-65
2023/09/25 06:14:41;;;;;;;3.47;3.38;;;;;;;;;;4134446;28;20089;-66
2023/09/25 06:16:43;;;;;;;2.80;2.70;;;;;;;;;;4134368;28;20560;-66
2023/09/25 06:18:46;;;;;;;;;;;;;;;;;;4134602;28;20880;-65
2023/09/25 06:20:48;;;;;;;3.67;3.47;;;;;;;;;;4134197;28;19922;-65
2023/09/25 06:22:50;;;;;;;3.80;3.80;;;;;;;;;;4134082;28;20081;-66
2023/09/25 06:24:52;;;;;;;3.60;3.50;;;;;;;;;;4134036;28;20034;-66
2023/09/25 06:26:53;;;;;;;4.32;4.28;;;;;;;;;;4134024;28;20041;-65
2023/09/25 06:28:55;;;;;;;3.60;3.60;;;;;;;;;;4135833;28;20454;-65
2023/09/25 06:30:56;;;;;;;6.18;3.45;;;;;;;;;;4133956;28;20281;-65
2023/09/25 06:32:58;;;;;;;2.80;2.60;;;;;;;;;;4133776;28;20058;-65
2023/09/25 06:35:00;;;;;;;2.20;2.08;;;;;;;;;;4133887;28;20592;-65
2023/09/25 06:37:02;;;;;;;2.15;2.05;;;;;;;;;;4132523;28;20046;-66
2023/09/25 06:39:09;;;;;;;2.43;2.23;;;;;;;;;;4133660;28;20066;-66
2023/09/25 06:41:11;;;;;;;2.35;2.35;;;;;;;;;;4133810;28;20285;-66
2023/09/25 06:43:13;;;;;;;3.65;2.20;;;;;;;;;;4133704;28;20089;-65
2023/09/25 06:45:14;;;;;;;2.35;2.05;;;;;;;;;;4133760;28;20049;-65
2023/09/25 06:47:16;;;;;;;2.55;2.55;;;;;;;;;;4133462;28;20034;-65
2023/09/25 06:49:19;;;;;;;2.63;2.55;;;;;;;;;;4133681;28;20094;-65
2023/09/25 06:51:22;;;;;;;3.05;3.05;;;;;;;;;;4133706;28;20059;-65
2023/09/25 06:53:24;;;;;;;2.53;2.53;;;;;;;;;;4133622;28;20481;-65
2023/09/25 06:55:25;;;;;;;2.50;2.40;;;;;;;;;;4132419;28;20493;-65
2023/09/25 06:57:27;;;;;;;2.60;2.60;;;;;;;;;;4133606;28;20042;-65
2023/09/25 06:59:32;;;;;;;2.15;2.15;;;;;;;;;;4132817;28;20815;-65
2023/09/25 07:01:33;;;;;;;2.00;1.92;;;;;;;;;;4133552;28;20051;-62
2023/09/25 07:03:36;;;;;;;1.90;1.90;;;;;;;;;;4133097;28;20034;-63
2023/09/25 07:05:38;;;;;;;1.75;1.65;;;;;;;;;;4133612;28;20572;-63
2023/09/25 07:07:39;;;;;;;2.35;1.95;;;;;;;;;;4133500;28;20042;-63
2023/09/25 07:09:42;;;;;;;1.40;1.40;;;;;;;;;;4133566;28;20050;-63
2023/09/25 07:11:44;;;;;;;2.15;1.95;;;;;;;;;;4133411;28;20039;-62
2023/09/25 07:13:47;;;;;;;1.97;1.87;;;;;;;;;;4133245;28;20054;-62
2023/09/25 07:15:48;;;;;;;1.02;1.02;;;;;;;;;;4132037;28;20054;-62
2023/09/25 07:17:50;;;;;;;2.00;1.40;;;;;;;;;;4133139;28;20121;-62
2023/09/25 07:19:52;;;;;;;1.65;1.35;;;;;;;;;;4133260;28;20061;-62
2023/09/25 07:21:54;;;;;;;1.30;1.30;;;;;;;;;;4132953;28;20141;-63
2023/09/25 07:23:56;;;;;;;1.83;1.73;;;;;;;;;;4133123;28;20164;-64
2023/09/25 07:26:04;;;;;;;1.77;1.67;;;;;;;;;;4133230;28;20042;-64
2023/09/25 07:28:06;;;;;;;2.67;2.67;;;;;;;;;;4132752;28;20049;-64
2023/09/25 07:30:08;;;;;;;2.78;2.78;;;;;;;;;;4132762;28;20101;-63
2023/09/25 07:32:11;;;;;;;2.80;2.70;;;;;;;;;;4129573;28;20102;-63
2023/09/25 07:34:13;;;;;;;3.40;3.30;;;;;;;;;;4116968;28;20085;-63
2023/09/25 07:36:19;;;;;;;2.92;2.72;;;;;;;;;;4116979;28;20043;-63
2023/09/25 07:38:22;;;;;;;3.03;2.92;;;;;;;;;;4116903;28;20046;-63
2023/09/25 07:40:24;;;;;;;2.10;2.00;;;;;;;;;;4116543;28;20039;-62
2023/09/25 07:42:25;;;;;;;1.80;1.80;;;;;;;;;;4129021;28;20046;-63
2023/09/25 07:44:27;;;;;;;1.92;1.83;;;;;;;;;;4132646;28;20383;-63
2023/09/25 07:46:31;;;;;;;1.30;1.30;;;;;;;;;;4131878;28;20450;-62
2023/09/25 07:48:37;;;;;;;1.85;1.20;;;;;;;;;;4132985;28;20046;-63
2023/09/25 07:50:40;;;;;;;2.50;2.50;;;;;;;;;;4132693;28;20042;-63
2023/09/25 07:52:42;;;;;;;3.30;3.20;;;;;;;;;;4132647;28;20046;-63
2023/09/25 07:54:52;;;;;;;1.90;1.90;;;;;;;;;;4132824;28;20049;-62
2023/09/25 07:56:55;;;;;;;2.40;1.88;;;;;;;;;;4132658;28;20149;-63
2023/09/25 07:58:56;;;;;;;1.80;1.70;;;;;;;;;;4132672;28;20053;-63
2023/09/25 08:01:04;;;;;;;1.33;1.33;;;;;;;;;;4132900;28;20144;-64
2023/09/25 08:03:06;;;;;;;1.77;1.70;;;;;;;;;;4132410;28;20473;-63
2023/09/25 08:05:08;;;;;;;1.70;1.60;;;;;;;;;;4132394;28;20050;-64
2023/09/25 08:07:11;;;;;;;9.63;1.90;;;;;;;;;;4132430;28;20088;-63
2023/09/25 08:09:13;;;;;;;2.45;1.10;;;;;;;;;;4132392;28;20081;-63
2023/09/25 08:11:15;;;;;;;2.17;1.17;;;;;;;;;;4131809;28;20122;-63
2023/09/25 08:13:18;;;;;;;4.97;1.92;;;;;;;;;;4132321;28;20041;-68
2023/09/25 08:15:20;;;;;;;8.10;1.30;;;;;;;;;;4132411;28;20065;-69
2023/09/25 08:17:21;;;;;;;1.63;1.52;;;;;;;;;;4132392;28;20073;-69
2023/09/25 08:19:23;;;;;;;5.43;1.70;;;;;;;;;;4132328;28;20124;-68
2023/09/25 08:21:25;;;;;;;1.73;1.73;;;;;;;;;;4132314;28;20069;-69
2023/09/25 08:23:28;;;;;;;2.33;2.13;;;;;;;;;;4132141;28;20047;-69
2023/09/25 08:25:30;;;;;;;7.00;2.50;;;;;;;;;;4132102;28;20096;-71
2023/09/25 08:27:32;;;;;;;2.03;2.03;;;;;;;;;;4132212;28;20046;-68
2023/09/25 08:29:35;;;;;;;1.48;1.42;;;;;;;;;;4145144;28;20041;-70
2023/09/25 08:31:37;;;;;;;;;;;;;;;;;;4148779;28;20065;-69
2023/09/25 08:33:40;;;;;;;2.63;2.60;;;;;;;;;;4147674;28;19921;-68
2023/09/25 08:35:42;;;;;;;3.50;3.10;;;;;;;;;;4148268;28;20038;-69
2023/09/25 08:37:44;;;;;;;3.25;3.15;;;;;;;;;;4148280;28;20056;-71
2023/09/25 08:39:45;;;;;;;2.67;2.67;;;;;;;;;;4143361;28;20108;-69
2023/09/25 08:41:47;;;;;;;3.33;3.33;;;;;;;;;;4131452;28;20121;-70
2023/09/25 08:43:49;;;;;;;3.20;3.20;;;;;;;;;;4132076;28;20101;-69
2023/09/25 08:45:51;;;;;;;3.20;3.00;;;;;;;;;;4132008;28;20073;-70
2023/09/25 08:47:52;;;;;;;4.28;4.07;;;;;;;;;;4131762;28;20134;-71
2023/09/25 08:49:55;;;;;;;4.32;4.32;;;;;;;;;;4131740;28;20068;-69
2023/09/25 08:51:57;;;;;;;3.50;3.50;;;;;;;;;;4131878;28;20046;-68
2023/09/25 08:53:59;;;;;;;4.18;4.07;;;;;;;;;;4132049;28;20046;-68
2023/09/25 08:56:00;;;;;;;4.03;3.90;;;;;;;;;;4131689;28;20104;-68
2023/09/25 08:58:04;;;;;;;2.53;2.35;;;;;;;;;;4131699;28;20053;-70
2023/09/25 09:00:14;;;;;;;22.52;3.58;;;;;;;;;;4131763;28;20046;-69
2023/09/25 09:02:17;;;;;;;2.17;1.85;;;;;;;;;;4131774;28;20129;-69
2023/09/25 09:04:22;;;;;;;1.50;1.50;;;;;;;;;;4131318;28;20061;-69
2023/09/25 09:06:23;;;;;;;1.40;1.40;;;;;;;;;;4131796;28;20070;-69
2023/09/25 09:08:28;;;;;;;1.52;1.52;;;;;;;;;;4130518;28;20049;-70
2023/09/25 09:10:30;;;;;;;1.58;1.58;;;;;;;;;;4130803;28;20109;-68
2023/09/25 09:12:36;;;;;;;1.60;1.50;;;;;;;;;;4131591;28;20046;-69
2023/09/25 09:14:51;;;;;;;1.20;1.20;;;;;;;;;;4131482;28;20474;-69
2023/09/25 09:16:59;;;;;;;1.63;1.63;;;;;;;;;;4131627;28;20057;-69
2023/09/25 09:19:06;;;;;;;1.00;1.00;;;;;;;;;;4131467;28;20450;-69
2023/09/25 09:21:27;;;;;;;1.00;1.00;;;;;;;;;;4131421;28;20038;-68
2023/09/25 09:23:42;;;;;;;1.10;1.10;;;;;;;;;;4131421;28;20568;-69
2023/09/25 09:25:46;;;;;;;1.10;1.10;;;;;;;;;;4145048;28;20045;-68
2023/09/25 09:27:48;;;;;;;0.90;0.90;;;;;;;;;;4145279;28;20045;-69
2023/09/25 09:29:52;;;;;;;1.00;1.00;;;;;;;;;;4146756;28;20072;-69
2023/09/25 09:31:54;;;;;;;0.90;0.90;;;;;;;;;;4147698;28;20069;-69
2023/09/25 09:33:56;;;;;;;;;;;;;;;;;;4148196;28;20513;-68
2023/09/25 09:35:58;;;;;;;0.90;0.90;;;;;;;;;;4143381;28;19936;-71
2023/09/25 09:38:02;;;;;;;1.00;1.00;;;;;;;;;;4130972;28;20038;-68
2023/09/25 09:40:09;;;;;;;1.10;1.10;;;;;;;;;;4129850;28;20046;-68
2023/09/25 09:42:11;;;;;;;1.13;1.13;;;;;;;;;;4129980;28;20046;-72
2023/09/25 09:44:13;;;;;;;1.30;1.30;;;;;;;;;;4130247;28;20050;-69
2023/09/25 09:46:15;;;;;;;1.70;1.60;;;;;;;;;;4133432;28;20073;-68
2023/09/25 09:48:17;;;;;;;;;;;;;;;;;;4134285;28;20046;-70
2023/09/25 09:50:25;;;;;;;2.40;2.40;;;;;;;;;;4118284;28;19922;-71
2023/09/25 09:52:27;;;;;;;3.03;3.03;;;;;;;;;;4133888;28;20039;-69
2023/09/25 09:54:35;;;;;;;1.60;1.60;;;;;;;;;;4131062;28;20049;-69
2023/09/25 09:56:38;;;;;;;2.08;1.98;;;;;;;;;;4118416;28;20514;-69
2023/09/25 09:58:39;;;;;;;2.00;1.90;;;;;;;;;;4118378;28;20070;-69
2023/09/25 10:00:41;;;;;;;1.75;1.75;;;;;;;;;;4122906;28;20050;-69
2023/09/25 10:02:45;;;;;;;2.63;2.47;;;;;;;;;;4133854;28;20050;-69
2023/09/25 10:04:48;;;;;;;2.30;2.20;;;;;;;;;;4134103;28;20054;-69
2023/09/25 10:06:57;;;;;;;1.70;1.60;;;;;;;;;;4133533;28;20050;-70
2023/09/25 10:09:00;;;;;;;1.77;1.48;;;;;;;;;;4133672;28;20034;-69
2023/09/25 10:11:15;;;;;;;1.40;1.40;;;;;;;;;;4130447;28;20046;-68
2023/09/25 10:13:29;;;;;;;2.95;1.20;;;;;;;;;;4134064;28;20052;-69
2023/09/25 10:15:31;;;;;;;1.70;1.20;;;;;;;;;;4133063;28;20042;-70
2023/09/25 10:17:38;;;;;;;1.30;1.30;;;;;;;;;;4134146;28;20046;-69
2023/09/25 10:19:40;;;;;;;1.50;1.50;;;;;;;;;;4133725;28;20042;-69
2023/09/25 10:22:02;;;;;;;2.33;1.80;;;;;;;;;;4137036;28;20057;-68
2023/09/25 10:24:03;;;;;;;1.85;1.75;;;;;;;;;;4132116;28;20066;-69
2023/09/25 10:26:09;;;;;;;2.42;2.42;;;;;;;;;;4122245;28;20121;-70
2023/09/25 10:28:17;;;;;;;1.85;1.85;;;;;;;;;;4133463;28;20034;-68
2023/09/25 10:30:18;;;;;;;2.30;2.30;;;;;;;;;;4124947;28;20038;-68
2023/09/25 10:32:30;;;;;;;1.98;1.75;;;;;;;;;;4130454;28;20502;-68
2023/09/25 10:34:32;;;;;;;1.90;1.80;;;;;;;;;;4125663;28;20035;-68
2023/09/25 10:36:38;;;;;;;1.45;1.45;;;;;;;;;;4133304;28;20289;-68
2023/09/25 10:38:41;;;;;;;1.40;1.40;;;;;;;;;;4132713;28;20042;-70
2023/09/25 10:40:44;;;;;;;1.70;1.70;;;;;;;;;;4133714;28;20379;-69
2023/09/25 10:42:46;;;;;;;1.80;1.70;;;;;;;;;;4133824;28;20046;-68
2023/09/25 10:44:48;;;;;;;1.88;1.70;;;;;;;;;;4132270;28;20038;-69
2023/09/25 10:46:50;;;;;;;1.20;1.20;;;;;;;;;;4133640;28;20069;-68
2023/09/25 10:48:53;;;;;;;1.10;1.10;;;;;;;;;;4133146;28;20038;-71
2023/09/25 10:50:55;;;;;;;1.02;1.02;;;;;;;;;;4133588;28;20034;-71
2023/09/25 10:52:57;;;;;;;1.58;1.48;;;;;;;;;;4133500;28;20039;-69
2023/09/25 10:54:59;;;;;;;1.20;1.20;;;;;;;;;;4132477;28;20435;-69
2023/09/25 10:57:01;;;;;;;1.98;1.88;;;;;;;;;;4126974;28;20552;-63
2023/09/25 10:59:04;;;;;;;1.13;1.13;;;;;;;;;;4132002;28;20043;-63
2023/09/25 11:01:05;;;;;;;1.00;1.00;;;;;;;;;;4130259;28;20038;-63
2023/09/25 11:03:10;;;;;;;1.10;1.00;;;;;;;;;;4125928;28;20121;-63
2023/09/25 11:05:12;;;;;;;0.90;0.90;;;;;;;;;;4117736;28;20051;-63
2023/09/25 11:07:14;;;;;;;1.00;1.00;;;;;;;;;;4129301;28;20459;-63
2023/09/25 11:09:16;;;;;;;0.90;0.90;;;;;;;;;;4131322;28;20107;-63
2023/09/25 11:11:18;;;;;;;1.05;1.05;;;;;;;;;;4131744;28;20065;-63
2023/09/25 11:13:20;;;;;;;1.95;1.10;;;;;;;;;;4129216;28;20540;-63
2023/09/25 11:15:22;;;;;;;;;;;;;;;;;;4127573;28;20051;-63
2023/09/25 11:17:24;;;;;;;1.55;1.05;;;;;;;;;;4123217;28;19993;-63
2023/09/25 11:19:28;;;;;;;1.00;1.00;;;;;;;;;;4129159;28;20038;-64
2023/09/25 11:21:31;;;;;;;1.77;0.90;;;;;;;;;;4125644;28;20038;-63
2023/09/25 11:23:33;;;;;;;0.90;0.90;;;;;;;;;;4131461;28;20318;-63
2023/09/25 11:25:39;;;;;;;1.00;1.00;;;;;;;;;;4131793;28;20510;-64
2023/09/25 11:27:53;;;;;;;0.90;0.90;;;;;;;;;;4133104;28;20470;-63
2023/09/25 11:29:55;;;;;;;0.98;0.90;;;;;;;;;;4127203;28;20042;-64
2023/09/25 11:31:56;;;;;;;;;;;;;;;;;;4131076;28;20096;-65
2023/09/25 11:34:06;;;;;;;1.00;0.90;;;;;;;;;;4122177;28;19922;-63
2023/09/25 11:36:09;;;;;;;0.90;0.90;;;;;;;;;;4128749;28;20053;-64
2023/09/25 11:38:21;;;;;;;1.08;1.08;;;;;;;;;;4129877;28;20038;-63
2023/09/25 11:40:24;;;;;;;3.08;0.88;;;;;;;;;;4125148;28;20046;-60
2023/09/25 11:42:25;;;;;;;1.40;0.90;;;;;;;;;;4129345;28;20100;-60
2023/09/25 11:44:27;;;;;;;1.05;1.00;;;;;;;;;;4131997;28;20379;-60
2023/09/25 11:46:29;;;;;;;0.80;0.80;;;;;;;;;;4130637;28;20042;-60
2023/09/25 11:48:32;;;;;;;0.80;0.80;;;;;;;;;;4132796;28;20073;-60
2023/09/25 11:50:35;;;;;;;0.80;0.80;;;;;;;;;;4126345;28;20100;-60
2023/09/25 11:52:37;;;;;;;1.25;0.85;;;;;;;;;;4132646;28;20038;-60
2023/09/25 11:54:38;;;;;;;0.90;0.90;;;;;;;;;;4128515;28;20522;-60
2023/09/25 11:56:41;;;;;;;0.85;0.85;;;;;;;;;;4130791;28;20042;-60
2023/09/25 11:58:43;;;;;;;1.60;0.80;;;;;;;;;;4132523;28;20078;-59
2023/09/25 12:00:45;;;;;;;0.80;0.80;;;;;;;;;;4132585;28;20529;-60
2023/09/25 12:02:46;;;;;;;0.80;0.80;;;;;;;;;;4132510;28;20475;-59
2023/09/25 12:04:52;;;;;;;0.88;0.88;;;;;;;;;;4132232;28;20046;-60
2023/09/25 12:06:54;;;;;;;2.25;0.70;;;;;;;;;;4131998;28;20026;-60
2023/09/25 12:08:56;;;;;;;0.80;0.80;;;;;;;;;;4131957;28;20050;-60
2023/09/25 12:10:57;;;;;;;2.83;0.80;;;;;;;;;;4132431;28;20166;-59
2023/09/25 12:12:59;;;;;;;0.70;0.70;;;;;;;;;;4130505;28;20042;-60
2023/09/25 12:15:03;;;;;;;0.70;0.70;;;;;;;;;;4128659;28;20042;-59
2023/09/25 12:17:07;;;;;;;0.90;0.90;;;;;;;;;;4132262;28;20050;-60
2023/09/25 12:19:11;;;;;;;0.80;0.80;;;;;;;;;;4132380;28;20576;-60